sensor_id;sensor_type;location;lat;lon;timestamp;P1;P2;P0
43479;PMS5003;29067;35.492;-97.520;2024-01-30T00:02:17;0;0;
43479;PMS5003;29067;35.492;-97.520;2024-01-30T00:04:45;0;0;
43479;PMS5003;29067;35.492;-97.520;2024-01-30T00:07:13;0;0;
43479;PMS5003;29067;35.492;-97.520;2024-01-30T00:09:40;0;0;
43479;PMS5003;29067;35.492;-97.520;2024-01-30T00:12:08;0;0;
43479;PMS5003;29067;35.492;-97.520;2024-01-30T00:14:36;0;0;
43479;PMS5003;29067;35.492;-97.520;2024-01-30T00:17:04;1;1;
43479;PMS5003;29067;35.492;-97.520;2024-01-30T00:19:31;0;0;
43479;PMS5003;29067;35.492;-97.520;2024-01-30T00:21:59;1;1;
43479;PMS5003;29067;35.492;-97.520;2024-01-30T00:24:26;0;0;
43479;PMS5003;29067;35.492;-97.520;2024-01-30T00:26:54;1;1;
43479;PMS5003;29067;35.492;-97.520;2024-01-30T00:29:22;1;1;
43479;PMS5003;29067;35.492;-97.520;2024-01-30T00:31:49;2;2;
43479;PMS5003;29067;35.492;-97.520;2024-01-30T00:34:17;1;1;
43479;PMS5003;29067;35.492;-97.520;2024-01-30T00:36:45;1;1;
43479;PMS5003;29067;35.492;-97.520;2024-01-30T00:39:13;2;2;
43479;PMS5003;29067;35.492;-97.520;2024-01-30T00:41:40;2;1;
43479;PMS5003;29067;35.492;-97.520;2024-01-30T00:44:08;7;7;
43479;PMS5003;29067;35.492;-97.520;2024-01-30T00:46:36;7;7;
43479;PMS5003;29067;35.492;-97.520;2024-01-30T00:49:03;6;5;
43479;PMS5003;29067;35.492;-97.520;2024-01-30T00:51:31;5;5;
43479;PMS5003;29067;35.492;-97.520;2024-01-30T00:53:59;6;5;
43479;PMS5003;29067;35.492;-97.520;2024-01-30T00:56:27;4;4;
43479;PMS5003;29067;35.492;-97.520;2024-01-30T00:58:55;9;6;
43479;PMS5003;29067;35.492;-97.520;2024-01-30T01:01:24;4;3;
43479;PMS5003;29067;35.492;-97.520;2024-01-30T01:03:51;5;3;
43479;PMS5003;29067;35.492;-97.520;2024-01-30T01:06:19;3;3;
43479;PMS5003;29067;35.492;-97.520;2024-01-30T01:08:47;3;3;
43479;PMS5003;29067;35.492;-97.520;2024-01-30T01:11:15;4;4;
43479;PMS5003;29067;35.492;-97.520;2024-01-30T01:13:43;3;3;
43479;PMS5003;29067;35.492;-97.520;2024-01-30T01:16:11;2;2;
43479;PMS5003;29067;35.492;-97.520;2024-01-30T01:18:39;2;2;
43479;PMS5003;29067;35.492;-97.520;2024-01-30T01:21:07;3;2;
43479;PMS5003;29067;35.492;-97.520;2024-01-30T01:23:35;6;6;
43479;PMS5003;29067;35.492;-97.520;2024-01-30T01:26:02;3;3;
43479;PMS5003;29067;35.492;-97.520;2024-01-30T01:28:31;3;3;
43479;PMS5003;29067;35.492;-97.520;2024-01-30T01:30:59;3;3;
43479;PMS5003;29067;35.492;-97.520;2024-01-30T01:33:26;4;4;
43479;PMS5003;29067;35.492;-97.520;2024-01-30T01:35:54;4;4;
43479;PMS5003;29067;35.492;-97.520;2024-01-30T01:38:22;3;3;
43479;PMS5003;29067;35.492;-97.520;2024-01-30T01:40:50;4;3;
43479;PMS5003;29067;35.492;-97.520;2024-01-30T01:43:17;4;4;
43479;PMS5003;29067;35.492;-97.520;2024-01-30T01:45:45;3;3;
43479;PMS5003;29067;35.492;-97.520;2024-01-30T01:48:13;3;3;
43479;PMS5003;29067;35.492;-97.520;2024-01-30T01:50:41;6;6;
43479;PMS5003;29067;35.492;-97.520;2024-01-30T01:53:10;6;5;
43479;PMS5003;29067;35.492;-97.520;2024-01-30T01:55:40;4;4;
43479;PMS5003;29067;35.492;-97.520;2024-01-30T01:58:09;4;4;
43479;PMS5003;29067;35.492;-97.520;2024-01-30T02:00:37;8;6;
43479;PMS5003;29067;35.492;-97.520;2024-01-30T02:03:06;5;5;
43479;PMS5003;29067;35.492;-97.520;2024-01-30T02:05:37;5;5;
43479;PMS5003;29067;35.492;-97.520;2024-01-30T02:08:06;7;6;
43479;PMS5003;29067;35.492;-97.520;2024-01-30T02:10:35;6;6;
43479;PMS5003;29067;35.492;-97.520;2024-01-30T02:13:03;6;6;
43479;PMS5003;29067;35.492;-97.520;2024-01-30T02:15:30;9;8;
43479;PMS5003;29067;35.492;-97.520;2024-01-30T02:17:58;14;8;
43479;PMS5003;29067;35.492;-97.520;2024-01-30T02:20:26;6;5;
43479;PMS5003;29067;35.492;-97.520;2024-01-30T02:22:57;6;6;
43479;PMS5003;29067;35.492;-97.520;2024-01-30T02:25:31;12;10;
43479;PMS5003;29067;35.492;-97.520;2024-01-30T02:28:00;7;7;
43479;PMS5003;29067;35.492;-97.520;2024-01-30T02:30:28;12;10;
43479;PMS5003;29067;35.492;-97.520;2024-01-30T02:32:56;21;21;
43479;PMS5003;29067;35.492;-97.520;2024-01-30T02:35:23;12;12;
43479;PMS5003;29067;35.492;-97.520;2024-01-30T02:37:51;8;7;
43479;PMS5003;29067;35.492;-97.520;2024-01-30T02:40:19;6;6;
43479;PMS5003;29067;35.492;-97.520;2024-01-30T02:42:47;6;6;
43479;PMS5003;29067;35.492;-97.520;2024-01-30T02:45:15;7;7;
43479;PMS5003;29067;35.492;-97.520;2024-01-30T02:47:44;8;7;
43479;PMS5003;29067;35.492;-97.520;2024-01-30T02:50:12;10;10;
43479;PMS5003;29067;35.492;-97.520;2024-01-30T02:52:40;9;8;
43479;PMS5003;29067;35.492;-97.520;2024-01-30T02:55:08;9;8;
43479;PMS5003;29067;35.492;-97.520;2024-01-30T02:57:35;6;6;
43479;PMS5003;29067;35.492;-97.520;2024-01-30T03:00:05;6;6;
43479;PMS5003;29067;35.492;-97.520;2024-01-30T03:02:34;8;7;
43479;PMS5003;29067;35.492;-97.520;2024-01-30T03:05:01;13;10;
43479;PMS5003;29067;35.492;-97.520;2024-01-30T03:07:30;31;29;
43479;PMS5003;29067;35.492;-97.520;2024-01-30T03:09:58;23;18;
43479;PMS5003;29067;35.492;-97.520;2024-01-30T03:12:26;48;46;
43479;PMS5003;29067;35.492;-97.520;2024-01-30T03:14:54;39;34;
43479;PMS5003;29067;35.492;-97.520;2024-01-30T03:17:22;14;11;
43479;PMS5003;29067;35.492;-97.520;2024-01-30T03:19:50;9;9;
43479;PMS5003;29067;35.492;-97.520;2024-01-30T03:22:18;14;11;
43479;PMS5003;29067;35.492;-97.520;2024-01-30T03:24:46;12;11;
43479;PMS5003;29067;35.492;-97.520;2024-01-30T03:27:13;10;7;
43479;PMS5003;29067;35.492;-97.520;2024-01-30T03:29:41;14;13;
43479;PMS5003;29067;35.492;-97.520;2024-01-30T03:32:10;16;12;
43479;PMS5003;29067;35.492;-97.520;2024-01-30T03:34:38;12;11;
43479;PMS5003;29067;35.492;-97.520;2024-01-30T03:37:06;14;13;
43479;PMS5003;29067;35.492;-97.520;2024-01-30T03:39:34;16;16;
43479;PMS5003;29067;35.492;-97.520;2024-01-30T03:42:02;15;14;
43479;PMS5003;29067;35.492;-97.520;2024-01-30T03:44:31;16;13;
43479;PMS5003;29067;35.492;-97.520;2024-01-30T03:46:58;15;11;
43479;PMS5003;29067;35.492;-97.520;2024-01-30T03:49:26;19;13;
43479;PMS5003;29067;35.492;-97.520;2024-01-30T03:51:54;14;14;
43479;PMS5003;29067;35.492;-97.520;2024-01-30T03:54:21;12;12;
43479;PMS5003;29067;35.492;-97.520;2024-01-30T03:56:49;9;9;
43479;PMS5003;29067;35.492;-97.520;2024-01-30T03:59:17;9;9;
43479;PMS5003;29067;35.492;-97.520;2024-01-30T04:01:46;15;12;
43479;PMS5003;29067;35.492;-97.520;2024-01-30T04:04:14;11;8;
43479;PMS5003;29067;35.492;-97.520;2024-01-30T04:06:42;12;9;
43479;PMS5003;29067;35.492;-97.520;2024-01-30T04:09:11;9;8;
43479;PMS5003;29067;35.492;-97.520;2024-01-30T04:11:40;11;9;
43479;PMS5003;29067;35.492;-97.520;2024-01-30T04:14:08;8;8;
43479;PMS5003;29067;35.492;-97.520;2024-01-30T04:16:37;11;9;
43479;PMS5003;29067;35.492;-97.520;2024-01-30T04:19:04;14;8;
43479;PMS5003;29067;35.492;-97.520;2024-01-30T04:21:32;13;12;
43479;PMS5003;29067;35.492;-97.520;2024-01-30T04:24:00;13;9;
43479;PMS5003;29067;35.492;-97.520;2024-01-30T04:26:28;12;11;
43479;PMS5003;29067;35.492;-97.520;2024-01-30T04:28:56;8;8;
43479;PMS5003;29067;35.492;-97.520;2024-01-30T04:31:23;8;8;
43479;PMS5003;29067;35.492;-97.520;2024-01-30T04:33:51;10;10;
43479;PMS5003;29067;35.492;-97.520;2024-01-30T04:36:19;12;12;
43479;PMS5003;29067;35.492;-97.520;2024-01-30T04:38:47;13;11;
43479;PMS5003;29067;35.492;-97.520;2024-01-30T04:41:15;10;10;
43479;PMS5003;29067;35.492;-97.520;2024-01-30T04:43:43;8;7;
43479;PMS5003;29067;35.492;-97.520;2024-01-30T04:46:10;11;10;
43479;PMS5003;29067;35.492;-97.520;2024-01-30T04:48:39;11;11;
43479;PMS5003;29067;35.492;-97.520;2024-01-30T04:51:07;10;10;
43479;PMS5003;29067;35.492;-97.520;2024-01-30T04:53:34;7;7;
43479;PMS5003;29067;35.492;-97.520;2024-01-30T04:58:12;11;10;
43479;PMS5003;29067;35.492;-97.520;2024-01-30T05:00:40;7;7;
43479;PMS5003;29067;35.492;-97.520;2024-01-30T05:03:08;10;8;
43479;PMS5003;29067;35.492;-97.520;2024-01-30T05:05:36;10;9;
43479;PMS5003;29067;35.492;-97.520;2024-01-30T05:08:04;8;8;
43479;PMS5003;29067;35.492;-97.520;2024-01-30T05:10:32;7;7;
43479;PMS5003;29067;35.492;-97.520;2024-01-30T05:13:00;6;6;
43479;PMS5003;29067;35.492;-97.520;2024-01-30T05:15:28;9;9;
43479;PMS5003;29067;35.492;-97.520;2024-01-30T05:17:56;6;4;
43479;PMS5003;29067;35.492;-97.520;2024-01-30T05:20:24;7;7;
43479;PMS5003;29067;35.492;-97.520;2024-01-30T05:22:52;7;7;
43479;PMS5003;29067;35.492;-97.520;2024-01-30T05:25:20;9;7;
43479;PMS5003;29067;35.492;-97.520;2024-01-30T05:27:47;7;6;
43479;PMS5003;29067;35.492;-97.520;2024-01-30T05:30:15;9;6;
43479;PMS5003;29067;35.492;-97.520;2024-01-30T05:32:43;6;5;
43479;PMS5003;29067;35.492;-97.520;2024-01-30T05:35:11;7;6;
43479;PMS5003;29067;35.492;-97.520;2024-01-30T05:37:39;5;5;
43479;PMS5003;29067;35.492;-97.520;2024-01-30T05:40:07;3;3;
43479;PMS5003;29067;35.492;-97.520;2024-01-30T05:42:35;4;3;
43479;PMS5003;29067;35.492;-97.520;2024-01-30T05:45:03;3;3;
43479;PMS5003;29067;35.492;-97.520;2024-01-30T05:47:32;2;2;
43479;PMS5003;29067;35.492;-97.520;2024-01-30T05:50:00;2;2;
43479;PMS5003;29067;35.492;-97.520;2024-01-30T05:52:27;2;2;
43479;PMS5003;29067;35.492;-97.520;2024-01-30T05:54:55;2;2;
43479;PMS5003;29067;35.492;-97.520;2024-01-30T05:57:23;2;2;
43479;PMS5003;29067;35.492;-97.520;2024-01-30T05:59:51;1;1;
43479;PMS5003;29067;35.492;-97.520;2024-01-30T06:02:19;1;1;
43479;PMS5003;29067;35.492;-97.520;2024-01-30T06:04:47;2;2;
43479;PMS5003;29067;35.492;-97.520;2024-01-30T06:07:14;2;2;
43479;PMS5003;29067;35.492;-97.520;2024-01-30T06:09:42;1;1;
43479;PMS5003;29067;35.492;-97.520;2024-01-30T06:12:11;1;1;
43479;PMS5003;29067;35.492;-97.520;2024-01-30T06:14:38;2;1;
43479;PMS5003;29067;35.492;-97.520;2024-01-30T06:17:06;1;1;
43479;PMS5003;29067;35.492;-97.520;2024-01-30T06:19:34;1;1;
43479;PMS5003;29067;35.492;-97.520;2024-01-30T06:22:02;1;1;
43479;PMS5003;29067;35.492;-97.520;2024-01-30T06:24:30;2;2;
43479;PMS5003;29067;35.492;-97.520;2024-01-30T06:26:58;2;2;
43479;PMS5003;29067;35.492;-97.520;2024-01-30T06:29:26;28;28;
43479;PMS5003;29067;35.492;-97.520;2024-01-30T06:31:54;18;18;
43479;PMS5003;29067;35.492;-97.520;2024-01-30T06:34:22;20;20;
43479;PMS5003;29067;35.492;-97.520;2024-01-30T06:36:49;23;23;
43479;PMS5003;29067;35.492;-97.520;2024-01-30T06:39:17;12;12;
43479;PMS5003;29067;35.492;-97.520;2024-01-30T06:41:45;13;13;
43479;PMS5003;29067;35.492;-97.520;2024-01-30T06:44:13;12;12;
43479;PMS5003;29067;35.492;-97.520;2024-01-30T06:46:41;19;19;
43479;PMS5003;29067;35.492;-97.520;2024-01-30T06:49:08;26;26;
43479;PMS5003;29067;35.492;-97.520;2024-01-30T06:51:36;2;2;
43479;PMS5003;29067;35.492;-97.520;2024-01-30T06:54:04;2;2;
43479;PMS5003;29067;35.492;-97.520;2024-01-30T06:56:33;2;2;
43479;PMS5003;29067;35.492;-97.520;2024-01-30T06:59:00;2;2;
43479;PMS5003;29067;35.492;-97.520;2024-01-30T07:01:28;2;2;
43479;PMS5003;29067;35.492;-97.520;2024-01-30T07:03:56;1;1;
43479;PMS5003;29067;35.492;-97.520;2024-01-30T07:06:25;2;2;
43479;PMS5003;29067;35.492;-97.520;2024-01-30T07:08:53;2;2;
43479;PMS5003;29067;35.492;-97.520;2024-01-30T07:11:21;2;2;
43479;PMS5003;29067;35.492;-97.520;2024-01-30T07:13:50;3;3;
43479;PMS5003;29067;35.492;-97.520;2024-01-30T07:16:18;4;4;
43479;PMS5003;29067;35.492;-97.520;2024-01-30T07:18:45;6;6;
43479;PMS5003;29067;35.492;-97.520;2024-01-30T07:21:13;7;7;
43479;PMS5003;29067;35.492;-97.520;2024-01-30T07:23:42;6;6;
43479;PMS5003;29067;35.492;-97.520;2024-01-30T07:26:10;11;8;
43479;PMS5003;29067;35.492;-97.520;2024-01-30T07:28:37;6;6;
43479;PMS5003;29067;35.492;-97.520;2024-01-30T07:31:05;9;6;
43479;PMS5003;29067;35.492;-97.520;2024-01-30T07:33:33;9;6;
43479;PMS5003;29067;35.492;-97.520;2024-01-30T07:36:01;6;6;
43479;PMS5003;29067;35.492;-97.520;2024-01-30T07:38:31;9;6;
43479;PMS5003;29067;35.492;-97.520;2024-01-30T07:40:59;13;9;
43479;PMS5003;29067;35.492;-97.520;2024-01-30T07:43:27;8;6;
43479;PMS5003;29067;35.492;-97.520;2024-01-30T07:45:55;8;8;
43479;PMS5003;29067;35.492;-97.520;2024-01-30T07:48:23;6;6;
43479;PMS5003;29067;35.492;-97.520;2024-01-30T07:50:51;6;5;
43479;PMS5003;29067;35.492;-97.520;2024-01-30T07:53:19;4;4;
43479;PMS5003;29067;35.492;-97.520;2024-01-30T07:55:47;6;6;
43479;PMS5003;29067;35.492;-97.520;2024-01-30T07:58:15;4;4;
43479;PMS5003;29067;35.492;-97.520;2024-01-30T08:00:42;4;4;
43479;PMS5003;29067;35.492;-97.520;2024-01-30T08:03:10;3;3;
43479;PMS5003;29067;35.492;-97.520;2024-01-30T08:05:38;3;3;
43479;PMS5003;29067;35.492;-97.520;2024-01-30T08:08:06;2;2;
43479;PMS5003;29067;35.492;-97.520;2024-01-30T08:10:35;3;3;
43479;PMS5003;29067;35.492;-97.520;2024-01-30T08:13:03;2;2;
43479;PMS5003;29067;35.492;-97.520;2024-01-30T08:15:30;2;2;
43479;PMS5003;29067;35.492;-97.520;2024-01-30T08:17:58;3;3;
43479;PMS5003;29067;35.492;-97.520;2024-01-30T08:20:26;2;2;
43479;PMS5003;29067;35.492;-97.520;2024-01-30T08:22:54;2;2;
43479;PMS5003;29067;35.492;-97.520;2024-01-30T08:25:22;2;2;
43479;PMS5003;29067;35.492;-97.520;2024-01-30T08:27:49;2;2;
43479;PMS5003;29067;35.492;-97.520;2024-01-30T08:30:17;4;3;
43479;PMS5003;29067;35.492;-97.520;2024-01-30T08:32:45;2;2;
43479;PMS5003;29067;35.492;-97.520;2024-01-30T08:35:13;2;2;
43479;PMS5003;29067;35.492;-97.520;2024-01-30T08:37:41;2;2;
43479;PMS5003;29067;35.492;-97.520;2024-01-30T08:40:09;3;3;
43479;PMS5003;29067;35.492;-97.520;2024-01-30T08:42:37;1;1;
43479;PMS5003;29067;35.492;-97.520;2024-01-30T08:45:05;2;2;
43479;PMS5003;29067;35.492;-97.520;2024-01-30T08:47:34;3;2;
43479;PMS5003;29067;35.492;-97.520;2024-01-30T08:50:02;2;2;
43479;PMS5003;29067;35.492;-97.520;2024-01-30T08:52:30;2;1;
43479;PMS5003;29067;35.492;-97.520;2024-01-30T08:54:58;3;3;
43479;PMS5003;29067;35.492;-97.520;2024-01-30T08:57:26;2;2;
43479;PMS5003;29067;35.492;-97.520;2024-01-30T08:59:55;1;1;
43479;PMS5003;29067;35.492;-97.520;2024-01-30T09:02:22;1;1;
43479;PMS5003;29067;35.492;-97.520;2024-01-30T09:04:50;2;1;
43479;PMS5003;29067;35.492;-97.520;2024-01-30T09:07:18;2;2;
43479;PMS5003;29067;35.492;-97.520;2024-01-30T09:09:46;1;1;
43479;PMS5003;29067;35.492;-97.520;2024-01-30T09:12:15;1;1;
43479;PMS5003;29067;35.492;-97.520;2024-01-30T09:14:42;1;1;
43479;PMS5003;29067;35.492;-97.520;2024-01-30T09:17:10;2;2;
43479;PMS5003;29067;35.492;-97.520;2024-01-30T09:19:38;1;1;
43479;PMS5003;29067;35.492;-97.520;2024-01-30T09:22:07;2;1;
43479;PMS5003;29067;35.492;-97.520;2024-01-30T09:24:35;1;1;
43479;PMS5003;29067;35.492;-97.520;2024-01-30T09:27:03;0;0;
43479;PMS5003;29067;35.492;-97.520;2024-01-30T09:29:31;1;1;
43479;PMS5003;29067;35.492;-97.520;2024-01-30T09:31:59;1;1;
43479;PMS5003;29067;35.492;-97.520;2024-01-30T09:34:27;1;1;
43479;PMS5003;29067;35.492;-97.520;2024-01-30T09:36:55;2;2;
43479;PMS5003;29067;35.492;-97.520;2024-01-30T09:39:22;1;1;
43479;PMS5003;29067;35.492;-97.520;2024-01-30T09:41:53;1;1;
43479;PMS5003;29067;35.492;-97.520;2024-01-30T09:44:28;2;2;
43479;PMS5003;29067;35.492;-97.520;2024-01-30T09:46:56;2;2;
43479;PMS5003;29067;35.492;-97.520;2024-01-30T09:49:24;1;1;
43479;PMS5003;29067;35.492;-97.520;2024-01-30T09:51:53;1;1;
43479;PMS5003;29067;35.492;-97.520;2024-01-30T09:54:22;2;1;
43479;PMS5003;29067;35.492;-97.520;2024-01-30T09:56:49;1;1;
43479;PMS5003;29067;35.492;-97.520;2024-01-30T09:59:17;1;1;
43479;PMS5003;29067;35.492;-97.520;2024-01-30T10:01:45;1;1;
43479;PMS5003;29067;35.492;-97.520;2024-01-30T10:04:14;2;2;
43479;PMS5003;29067;35.492;-97.520;2024-01-30T10:06:42;1;1;
43479;PMS5003;29067;35.492;-97.520;2024-01-30T10:09:10;1;1;
43479;PMS5003;29067;35.492;-97.520;2024-01-30T10:11:38;2;2;
43479;PMS5003;29067;35.492;-97.520;2024-01-30T10:14:06;1;1;
43479;PMS5003;29067;35.492;-97.520;2024-01-30T10:16:34;0;0;
43479;PMS5003;29067;35.492;-97.520;2024-01-30T10:19:02;1;1;
43479;PMS5003;29067;35.492;-97.520;2024-01-30T10:21:30;0;0;
43479;PMS5003;29067;35.492;-97.520;2024-01-30T10:23:58;1;1;
43479;PMS5003;29067;35.492;-97.520;2024-01-30T10:26:25;1;1;
43479;PMS5003;29067;35.492;-97.520;2024-01-30T10:28:53;1;1;
43479;PMS5003;29067;35.492;-97.520;2024-01-30T10:31:21;1;1;
43479;PMS5003;29067;35.492;-97.520;2024-01-30T10:33:49;1;1;
43479;PMS5003;29067;35.492;-97.520;2024-01-30T10:36:17;2;2;
43479;PMS5003;29067;35.492;-97.520;2024-01-30T10:38:45;1;1;
43479;PMS5003;29067;35.492;-97.520;2024-01-30T10:41:13;1;1;
43479;PMS5003;29067;35.492;-97.520;2024-01-30T10:43:47;1;1;
43479;PMS5003;29067;35.492;-97.520;2024-01-30T10:46:25;1;1;
43479;PMS5003;29067;35.492;-97.520;2024-01-30T10:48:59;2;2;
43479;PMS5003;29067;35.492;-97.520;2024-01-30T10:51:27;1;1;
43479;PMS5003;29067;35.492;-97.520;2024-01-30T10:53:57;1;1;
43479;PMS5003;29067;35.492;-97.520;2024-01-30T10:56:26;1;1;
43479;PMS5003;29067;35.492;-97.520;2024-01-30T10:58:54;3;2;
43479;PMS5003;29067;35.492;-97.520;2024-01-30T11:01:22;1;1;
43479;PMS5003;29067;35.492;-97.520;2024-01-30T11:03:53;1;1;
43479;PMS5003;29067;35.492;-97.520;2024-01-30T11:06:22;1;1;
43479;PMS5003;29067;35.492;-97.520;2024-01-30T11:09:00;1;1;
43479;PMS5003;29067;35.492;-97.520;2024-01-30T11:11:28;1;1;
43479;PMS5003;29067;35.492;-97.520;2024-01-30T11:14:00;1;1;
43479;PMS5003;29067;35.492;-97.520;2024-01-30T11:16:30;2;1;
43479;PMS5003;29067;35.492;-97.520;2024-01-30T11:19:00;1;1;
43479;PMS5003;29067;35.492;-97.520;2024-01-30T11:21:28;1;1;
43479;PMS5003;29067;35.492;-97.520;2024-01-30T11:23:56;2;2;
43479;PMS5003;29067;35.492;-97.520;2024-01-30T11:26:27;3;2;
43479;PMS5003;29067;35.492;-97.520;2024-01-30T11:44:59;2;2;
43479;PMS5003;29067;35.492;-97.520;2024-01-30T11:47:26;1;1;
43479;PMS5003;29067;35.492;-97.520;2024-01-30T11:49:55;2;2;
43479;PMS5003;29067;35.492;-97.520;2024-01-30T11:52:24;2;2;
43479;PMS5003;29067;35.492;-97.520;2024-01-30T11:54:52;2;1;
43479;PMS5003;29067;35.492;-97.520;2024-01-30T11:57:20;2;2;
43479;PMS5003;29067;35.492;-97.520;2024-01-30T11:59:48;1;1;
43479;PMS5003;29067;35.492;-97.520;2024-01-30T12:03:00;2;2;
43479;PMS5003;29067;35.492;-97.520;2024-01-30T12:05:28;2;2;
43479;PMS5003;29067;35.492;-97.520;2024-01-30T12:07:56;2;2;
43479;PMS5003;29067;35.492;-97.520;2024-01-30T12:10:24;3;3;
43479;PMS5003;29067;35.492;-97.520;2024-01-30T12:12:52;24;23;
43479;PMS5003;29067;35.492;-97.520;2024-01-30T12:15:21;23;23;
43479;PMS5003;29067;35.492;-97.520;2024-01-30T12:17:50;28;28;
43479;PMS5003;29067;35.492;-97.520;2024-01-30T12:20:18;37;37;
43479;PMS5003;29067;35.492;-97.520;2024-01-30T12:22:47;36;35;
43479;PMS5003;29067;35.492;-97.520;2024-01-30T12:25:17;68;67;
43479;PMS5003;29067;35.492;-97.520;2024-01-30T12:27:47;84;84;
43479;PMS5003;29067;35.492;-97.520;2024-01-30T12:30:19;132;132;
43479;PMS5003;29067;35.492;-97.520;2024-01-30T12:32:49;76;75;
43479;PMS5003;29067;35.492;-97.520;2024-01-30T12:35:18;106;106;
43479;PMS5003;29067;35.492;-97.520;2024-01-30T12:37:47;56;56;
43479;PMS5003;29067;35.492;-97.520;2024-01-30T12:40:16;21;18;
43479;PMS5003;29067;35.492;-97.520;2024-01-30T12:42:46;68;68;
43479;PMS5003;29067;35.492;-97.520;2024-01-30T12:45:14;87;87;
43479;PMS5003;29067;35.492;-97.520;2024-01-30T12:47:42;38;35;
43479;PMS5003;29067;35.492;-97.520;2024-01-30T12:50:10;153;153;
43479;PMS5003;29067;35.492;-97.520;2024-01-30T12:52:38;34;34;
43479;PMS5003;29067;35.492;-97.520;2024-01-30T12:55:06;31;31;
43479;PMS5003;29067;35.492;-97.520;2024-01-30T12:57:34;33;33;
43479;PMS5003;29067;35.492;-97.520;2024-01-30T13:00:02;40;40;
43479;PMS5003;29067;35.492;-97.520;2024-01-30T13:02:31;37;37;
43479;PMS5003;29067;35.492;-97.520;2024-01-30T13:04:59;35;35;
43479;PMS5003;29067;35.492;-97.520;2024-01-30T13:07:27;37;37;
43479;PMS5003;29067;35.492;-97.520;2024-01-30T13:09:55;37;37;
43479;PMS5003;29067;35.492;-97.520;2024-01-30T13:12:24;61;61;
43479;PMS5003;29067;35.492;-97.520;2024-01-30T13:14:52;68;68;
43479;PMS5003;29067;35.492;-97.520;2024-01-30T13:17:20;30;27;
43479;PMS5003;29067;35.492;-97.520;2024-01-30T13:19:48;63;63;
43479;PMS5003;29067;35.492;-97.520;2024-01-30T13:22:16;42;42;
43479;PMS5003;29067;35.492;-97.520;2024-01-30T13:24:44;57;57;
43479;PMS5003;29067;35.492;-97.520;2024-01-30T13:27:12;55;55;
43479;PMS5003;29067;35.492;-97.520;2024-01-30T13:29:40;14;13;
43479;PMS5003;29067;35.492;-97.520;2024-01-30T13:32:08;4;3;
43479;PMS5003;29067;35.492;-97.520;2024-01-30T13:34:36;34;34;
43479;PMS5003;29067;35.492;-97.520;2024-01-30T13:37:03;3;3;
43479;PMS5003;29067;35.492;-97.520;2024-01-30T13:39:31;3;3;
43479;PMS5003;29067;35.492;-97.520;2024-01-30T13:41:59;3;3;
43479;PMS5003;29067;35.492;-97.520;2024-01-30T13:44:27;2;2;
43479;PMS5003;29067;35.492;-97.520;2024-01-30T13:46:55;3;3;
43479;PMS5003;29067;35.492;-97.520;2024-01-30T13:49:23;3;3;
43479;PMS5003;29067;35.492;-97.520;2024-01-30T13:51:51;2;2;
43479;PMS5003;29067;35.492;-97.520;2024-01-30T13:54:19;2;2;
43479;PMS5003;29067;35.492;-97.520;2024-01-30T13:56:47;4;3;
43479;PMS5003;29067;35.492;-97.520;2024-01-30T13:59:15;3;3;
43479;PMS5003;29067;35.492;-97.520;2024-01-30T14:01:43;2;2;
43479;PMS5003;29067;35.492;-97.520;2024-01-30T14:04:11;3;3;
43479;PMS5003;29067;35.492;-97.520;2024-01-30T14:06:39;2;2;
43479;PMS5003;29067;35.492;-97.520;2024-01-30T14:09:06;3;3;
43479;PMS5003;29067;35.492;-97.520;2024-01-30T14:11:34;3;3;
43479;PMS5003;29067;35.492;-97.520;2024-01-30T14:14:02;4;3;
43479;PMS5003;29067;35.492;-97.520;2024-01-30T14:16:30;3;3;
43479;PMS5003;29067;35.492;-97.520;2024-01-30T14:18:58;3;3;
43479;PMS5003;29067;35.492;-97.520;2024-01-30T14:21:27;2;2;
43479;PMS5003;29067;35.492;-97.520;2024-01-30T14:23:54;113;109;
43479;PMS5003;29067;35.492;-97.520;2024-01-30T14:26:22;111;110;
43479;PMS5003;29067;35.492;-97.520;2024-01-30T14:28:50;34;34;
43479;PMS5003;29067;35.492;-97.520;2024-01-30T14:31:18;8;8;
43479;PMS5003;29067;35.492;-97.520;2024-01-30T14:33:46;4;4;
43479;PMS5003;29067;35.492;-97.520;2024-01-30T14:36:14;2;2;
43479;PMS5003;29067;35.492;-97.520;2024-01-30T14:38:42;2;2;
43479;PMS5003;29067;35.492;-97.520;2024-01-30T14:41:09;2;2;
43479;PMS5003;29067;35.492;-97.520;2024-01-30T14:43:37;2;2;
43479;PMS5003;29067;35.492;-97.520;2024-01-30T14:46:05;3;2;
43479;PMS5003;29067;35.492;-97.520;2024-01-30T14:48:33;2;2;
43479;PMS5003;29067;35.492;-97.520;2024-01-30T14:51:01;2;2;
43479;PMS5003;29067;35.492;-97.520;2024-01-30T14:53:29;2;2;
43479;PMS5003;29067;35.492;-97.520;2024-01-30T14:55:56;2;2;
43479;PMS5003;29067;35.492;-97.520;2024-01-30T14:58:25;3;3;
43479;PMS5003;29067;35.492;-97.520;2024-01-30T15:00:53;4;2;
43479;PMS5003;29067;35.492;-97.520;2024-01-30T15:03:21;2;2;
43479;PMS5003;29067;35.492;-97.520;2024-01-30T15:05:48;2;2;
43479;PMS5003;29067;35.492;-97.520;2024-01-30T15:08:16;3;2;
43479;PMS5003;29067;35.492;-97.520;2024-01-30T15:10:44;3;3;
43479;PMS5003;29067;35.492;-97.520;2024-01-30T15:13:12;2;2;
43479;PMS5003;29067;35.492;-97.520;2024-01-30T15:15:42;2;2;
43479;PMS5003;29067;35.492;-97.520;2024-01-30T15:18:10;2;2;
43479;PMS5003;29067;35.492;-97.520;2024-01-30T15:20:38;1;1;
43479;PMS5003;29067;35.492;-97.520;2024-01-30T15:23:07;3;3;
43479;PMS5003;29067;35.492;-97.520;2024-01-30T15:25:34;3;2;
43479;PMS5003;29067;35.492;-97.520;2024-01-30T15:28:02;2;2;
43479;PMS5003;29067;35.492;-97.520;2024-01-30T15:30:31;2;2;
43479;PMS5003;29067;35.492;-97.520;2024-01-30T15:32:59;3;3;
43479;PMS5003;29067;35.492;-97.520;2024-01-30T15:35:27;2;2;
43479;PMS5003;29067;35.492;-97.520;2024-01-30T15:37:54;2;2;
43479;PMS5003;29067;35.492;-97.520;2024-01-30T15:40:22;3;3;
43479;PMS5003;29067;35.492;-97.520;2024-01-30T15:42:50;2;2;
43479;PMS5003;29067;35.492;-97.520;2024-01-30T15:45:18;62;59;
43479;PMS5003;29067;35.492;-97.520;2024-01-30T15:47:46;6;6;
43479;PMS5003;29067;35.492;-97.520;2024-01-30T15:50:14;2;2;
43479;PMS5003;29067;35.492;-97.520;2024-01-30T15:52:42;3;3;
43479;PMS5003;29067;35.492;-97.520;2024-01-30T15:55:09;4;4;
43479;PMS5003;29067;35.492;-97.520;2024-01-30T15:57:38;41;41;
43479;PMS5003;29067;35.492;-97.520;2024-01-30T16:00:07;101;101;
43479;PMS5003;29067;35.492;-97.520;2024-01-30T16:02:37;97;97;
43479;PMS5003;29067;35.492;-97.520;2024-01-30T16:05:05;102;102;
43479;PMS5003;29067;35.492;-97.520;2024-01-30T16:07:33;58;53;
43479;PMS5003;29067;35.492;-97.520;2024-01-30T16:10:01;36;32;
43479;PMS5003;29067;35.492;-97.520;2024-01-30T16:12:30;22;22;
43479;PMS5003;29067;35.492;-97.520;2024-01-30T16:14:58;13;13;
43479;PMS5003;29067;35.492;-97.520;2024-01-30T16:17:25;67;67;
43479;PMS5003;29067;35.492;-97.520;2024-01-30T16:19:54;58;58;
43479;PMS5003;29067;35.492;-97.520;2024-01-30T16:22:22;70;70;
43479;PMS5003;29067;35.492;-97.520;2024-01-30T16:24:50;36;36;
43479;PMS5003;29067;35.492;-97.520;2024-01-30T16:27:18;17;17;
43479;PMS5003;29067;35.492;-97.520;2024-01-30T16:29:46;8;8;
43479;PMS5003;29067;35.492;-97.520;2024-01-30T16:32:13;4;4;
43479;PMS5003;29067;35.492;-97.520;2024-01-30T16:34:41;2;2;